Terminal Aerodrome Forecast
Issued by NWS

Home | Current Version | Previous Version | Text Only | Print | Product List | Glossary On
Versions: 1 2 3 4 5 6 7 8 9 10 11 12
582
FTUS46 KLOX 121145
TAFLGB
TAF
KLGB 121145Z 1212/1312 VRB03KT P6SM BKN200
     FM122000 20006KT P6SM BKN250
     FM130000 28008KT P6SM BKN200
     FM130400 VRB03KT P6SM BKN250
     FM130900 VRB03KT 2SM BR BKN005=

USA.gov is the U.S. government's official web portal to all federal, state and local government web resources and services.